sensor_id;sensor_type;location;lat;lon;timestamp;pressure;altitude;pressure_sealevel;temperature;humidity
75401;BME280;63974;47.538;18.972;2023-06-22T00:02:15;100367.53;;;23.10;79.71
75401;BME280;63974;47.538;18.972;2023-06-22T00:05:18;100367.09;;;22.97;80.20
75401;BME280;63974;47.538;18.972;2023-06-22T00:08:21;100352.75;;;22.93;80.52
75401;BME280;63974;47.538;18.972;2023-06-22T00:11:23;100354.34;;;22.94;80.20
75401;BME280;63974;47.538;18.972;2023-06-22T00:14:26;100361.03;;;22.96;80.40
75401;BME280;63974;47.538;18.972;2023-06-22T00:17:29;100353.66;;;23.03;80.18
75401;BME280;63974;47.538;18.972;2023-06-22T00:20:32;100338.59;;;23.04;79.95
75401;BME280;63974;47.538;18.972;2023-06-22T00:23:36;100332.66;;;22.97;80.23
75401;BME280;63974;47.538;18.972;2023-06-22T00:26:39;100324.75;;;22.76;81.08
75401;BME280;63974;47.538;18.972;2023-06-22T00:29:44;100327.81;;;22.68;81.45
75401;BME280;63974;47.538;18.972;2023-06-22T00:32:47;100331.22;;;22.63;82.41
75401;BME280;63974;47.538;18.972;2023-06-22T00:35:50;100337.44;;;22.52;83.29
75401;BME280;63974;47.538;18.972;2023-06-22T00:38:55;100343.38;;;22.43;84.13
75401;BME280;63974;47.538;18.972;2023-06-22T00:41:59;100342.03;;;22.40;84.20
75401;BME280;63974;47.538;18.972;2023-06-22T00:45:02;100366.13;;;22.44;84.24
75401;BME280;63974;47.538;18.972;2023-06-22T00:48:05;100359.56;;;22.46;83.78
75401;BME280;63974;47.538;18.972;2023-06-22T00:51:09;100365.50;;;22.53;83.39
75401;BME280;63974;47.538;18.972;2023-06-22T00:54:13;100379.94;;;22.46;83.70
75401;BME280;63974;47.538;18.972;2023-06-22T00:57:17;100380.50;;;22.31;84.29
75401;BME280;63974;47.538;18.972;2023-06-22T01:00:23;100373.91;;;22.34;84.12
75401;BME280;63974;47.538;18.972;2023-06-22T01:03:28;100386.03;;;22.46;83.53
75401;BME280;63974;47.538;18.972;2023-06-22T01:06:35;100386.41;;;22.38;83.87
75401;BME280;63974;47.538;18.972;2023-06-22T01:09:59;100385.72;;;22.43;83.64
75401;BME280;63974;47.538;18.972;2023-06-22T01:13:14;100388.63;;;22.41;83.73
75401;BME280;63974;47.538;18.972;2023-06-22T01:16:31;100384.91;;;22.26;83.93
75401;BME280;63974;47.538;18.972;2023-06-22T01:19:41;100394.34;;;21.72;86.08
75401;BME280;63974;47.538;18.972;2023-06-22T01:22:54;100404.91;;;21.72;86.21
75401;BME280;63974;47.538;18.972;2023-06-22T01:26:16;100417.00;;;21.29;88.81
75401;BME280;63974;47.538;18.972;2023-06-22T01:29:24;100431.16;;;21.23;89.33
75401;BME280;63974;47.538;18.972;2023-06-22T01:32:33;100429.22;;;21.18;89.07
75401;BME280;63974;47.538;18.972;2023-06-22T01:35:37;100429.81;;;21.48;87.41
75401;BME280;63974;47.538;18.972;2023-06-22T01:38:42;100425.41;;;21.65;86.59
75401;BME280;63974;47.538;18.972;2023-06-22T01:41:47;100430.63;;;21.77;85.97
75401;BME280;63974;47.538;18.972;2023-06-22T01:44:52;100437.78;;;21.93;84.63
75401;BME280;63974;47.538;18.972;2023-06-22T01:47:56;100444.59;;;21.89;84.13
75401;BME280;63974;47.538;18.972;2023-06-22T01:50:59;100457.28;;;21.75;84.68
75401;BME280;63974;47.538;18.972;2023-06-22T01:54:02;100459.22;;;21.80;84.83
75401;BME280;63974;47.538;18.972;2023-06-22T01:57:05;100455.53;;;21.81;84.19
75401;BME280;63974;47.538;18.972;2023-06-22T02:00:14;100446.44;;;21.88;83.93
75401;BME280;63974;47.538;18.972;2023-06-22T02:03:30;100453.91;;;21.91;83.82
75401;BME280;63974;47.538;18.972;2023-06-22T02:06:39;100443.00;;;21.88;83.90
75401;BME280;63974;47.538;18.972;2023-06-22T02:09:49;100448.69;;;21.96;83.68
75401;BME280;63974;47.538;18.972;2023-06-22T02:12:54;100441.25;;;22.10;82.69
75401;BME280;63974;47.538;18.972;2023-06-22T02:15:57;100448.38;;;22.09;82.73
75401;BME280;63974;47.538;18.972;2023-06-22T02:19:01;100448.22;;;22.16;82.56
75401;BME280;63974;47.538;18.972;2023-06-22T02:22:09;100445.97;;;22.08;82.95
75401;BME280;63974;47.538;18.972;2023-06-22T02:25:11;100443.09;;;22.09;82.83
75401;BME280;63974;47.538;18.972;2023-06-22T02:28:14;100430.91;;;22.08;82.61
75401;BME280;63974;47.538;18.972;2023-06-22T02:31:18;100440.69;;;22.08;82.88
75401;BME280;63974;47.538;18.972;2023-06-22T02:34:21;100446.28;;;21.95;83.41
75401;BME280;63974;47.538;18.972;2023-06-22T02:37:26;100445.31;;;21.84;83.82
75401;BME280;63974;47.538;18.972;2023-06-22T02:40:32;100441.13;;;21.88;83.85
75401;BME280;63974;47.538;18.972;2023-06-22T02:43:34;100439.88;;;21.91;83.87
75401;BME280;63974;47.538;18.972;2023-06-22T02:46:37;100442.09;;;21.82;83.98
75401;BME280;63974;47.538;18.972;2023-06-22T02:49:40;100446.28;;;21.78;84.27
75401;BME280;63974;47.538;18.972;2023-06-22T02:52:44;100439.13;;;21.79;84.24
75401;BME280;63974;47.538;18.972;2023-06-22T02:55:47;100438.91;;;21.80;84.05
75401;BME280;63974;47.538;18.972;2023-06-22T02:58:50;100437.44;;;21.89;84.06
75401;BME280;63974;47.538;18.972;2023-06-22T03:01:53;100446.19;;;21.90;83.54
75401;BME280;63974;47.538;18.972;2023-06-22T03:05:00;100447.25;;;21.89;83.62
75401;BME280;63974;47.538;18.972;2023-06-22T03:08:04;100456.63;;;21.96;83.34
75401;BME280;63974;47.538;18.972;2023-06-22T03:11:09;100465.97;;;21.87;84.14
75401;BME280;63974;47.538;18.972;2023-06-22T03:14:11;100466.31;;;21.91;84.05
75401;BME280;63974;47.538;18.972;2023-06-22T03:17:14;100464.63;;;22.01;83.58
75401;BME280;63974;47.538;18.972;2023-06-22T03:20:17;100472.81;;;22.00;83.88
75401;BME280;63974;47.538;18.972;2023-06-22T03:23:21;100473.72;;;21.77;85.02
75401;BME280;63974;47.538;18.972;2023-06-22T03:26:24;100483.22;;;21.50;86.35
75401;BME280;63974;47.538;18.972;2023-06-22T03:29:29;100480.81;;;21.49;86.25
75401;BME280;63974;47.538;18.972;2023-06-22T03:32:33;100479.91;;;21.43;86.73
75401;BME280;63974;47.538;18.972;2023-06-22T03:35:35;100480.91;;;21.65;85.45
75401;BME280;63974;47.538;18.972;2023-06-22T03:38:38;100486.53;;;21.97;83.78
75401;BME280;63974;47.538;18.972;2023-06-22T03:41:44;100474.75;;;22.04;83.01
75401;BME280;63974;47.538;18.972;2023-06-22T03:44:47;100476.66;;;21.92;83.33
75401;BME280;63974;47.538;18.972;2023-06-22T03:47:50;100473.47;;;21.90;84.02
75401;BME280;63974;47.538;18.972;2023-06-22T03:50:53;100479.00;;;22.05;83.18
75401;BME280;63974;47.538;18.972;2023-06-22T03:53:55;100480.03;;;22.04;83.32
75401;BME280;63974;47.538;18.972;2023-06-22T03:56:58;100478.88;;;22.28;82.69
75401;BME280;63974;47.538;18.972;2023-06-22T04:00:01;100459.81;;;22.43;81.60
75401;BME280;63974;47.538;18.972;2023-06-22T04:03:14;100472.25;;;22.59;80.71
75401;BME280;63974;47.538;18.972;2023-06-22T04:06:17;100470.16;;;22.61;80.66
75401;BME280;63974;47.538;18.972;2023-06-22T04:09:20;100470.31;;;22.71;80.27
75401;BME280;63974;47.538;18.972;2023-06-22T04:12:24;100468.44;;;22.71;80.31
75401;BME280;63974;47.538;18.972;2023-06-22T04:15:28;100471.00;;;22.83;79.98
75401;BME280;63974;47.538;18.972;2023-06-22T04:18:31;100476.53;;;22.81;80.30
75401;BME280;63974;47.538;18.972;2023-06-22T04:21:34;100472.28;;;22.80;79.83
75401;BME280;63974;47.538;18.972;2023-06-22T04:24:36;100471.38;;;22.91;79.44
75401;BME280;63974;47.538;18.972;2023-06-22T04:27:39;100481.56;;;22.99;78.87
75401;BME280;63974;47.538;18.972;2023-06-22T04:42:17;100476.75;;;23.55;75.14
75401;BME280;63974;47.538;18.972;2023-06-22T04:45:20;100471.91;;;23.52;74.64
75401;BME280;63974;47.538;18.972;2023-06-22T04:48:23;100473.03;;;23.56;73.93
75401;BME280;63974;47.538;18.972;2023-06-22T04:51:26;100473.09;;;23.61;74.72
75401;BME280;63974;47.538;18.972;2023-06-22T04:54:34;100476.78;;;23.60;74.61
75401;BME280;63974;47.538;18.972;2023-06-22T04:57:37;100479.00;;;23.68;73.63
75401;BME280;63974;47.538;18.972;2023-06-22T05:00:41;100474.75;;;23.67;74.01
75401;BME280;63974;47.538;18.972;2023-06-22T05:03:47;100470.59;;;23.76;73.92
75401;BME280;63974;47.538;18.972;2023-06-22T05:06:51;100471.63;;;23.75;74.11
75401;BME280;63974;47.538;18.972;2023-06-22T05:09:53;100472.44;;;23.76;72.89
75401;BME280;63974;47.538;18.972;2023-06-22T05:12:56;100481.19;;;23.76;73.52
75401;BME280;63974;47.538;18.972;2023-06-22T05:15:59;100486.13;;;23.89;73.82
75401;BME280;63974;47.538;18.972;2023-06-22T05:19:05;100493.19;;;24.05;71.73
75401;BME280;63974;47.538;18.972;2023-06-22T05:22:08;100496.94;;;24.09;71.79
75401;BME280;63974;47.538;18.972;2023-06-22T05:25:11;100493.34;;;24.20;71.29
75401;BME280;63974;47.538;18.972;2023-06-22T05:28:14;100492.16;;;24.38;71.26
75401;BME280;63974;47.538;18.972;2023-06-22T05:31:17;100494.34;;;24.46;70.59
75401;BME280;63974;47.538;18.972;2023-06-22T05:34:22;100493.16;;;24.32;70.10
75401;BME280;63974;47.538;18.972;2023-06-22T05:37:25;100505.47;;;24.43;69.81
75401;BME280;63974;47.538;18.972;2023-06-22T05:40:28;100499.28;;;24.64;69.42
75401;BME280;63974;47.538;18.972;2023-06-22T05:43:31;100504.22;;;24.87;68.41
75401;BME280;63974;47.538;18.972;2023-06-22T05:46:34;100498.97;;;24.97;67.92
75401;BME280;63974;47.538;18.972;2023-06-22T05:49:42;100502.25;;;25.14;68.26
75401;BME280;63974;47.538;18.972;2023-06-22T05:52:44;100499.59;;;25.14;67.77
75401;BME280;63974;47.538;18.972;2023-06-22T05:55:48;100502.53;;;25.17;68.04
75401;BME280;63974;47.538;18.972;2023-06-22T05:58:50;100504.81;;;25.45;67.84
75401;BME280;63974;47.538;18.972;2023-06-22T06:01:53;100499.25;;;25.46;66.74
75401;BME280;63974;47.538;18.972;2023-06-22T06:04:56;100498.22;;;25.62;67.29
75401;BME280;63974;47.538;18.972;2023-06-22T06:08:03;100491.06;;;25.63;66.79
75401;BME280;63974;47.538;18.972;2023-06-22T06:11:09;100495.31;;;25.69;66.01
75401;BME280;63974;47.538;18.972;2023-06-22T06:14:12;100498.00;;;25.79;66.16
75401;BME280;63974;47.538;18.972;2023-06-22T06:17:15;100500.13;;;25.82;66.26
75401;BME280;63974;47.538;18.972;2023-06-22T06:20:20;100498.59;;;25.86;66.06
75401;BME280;63974;47.538;18.972;2023-06-22T06:23:24;100509.47;;;25.79;65.80
75401;BME280;63974;47.538;18.972;2023-06-22T06:26:26;100504.72;;;25.86;66.12
75401;BME280;63974;47.538;18.972;2023-06-22T06:29:35;100495.97;;;26.01;66.38
75401;BME280;63974;47.538;18.972;2023-06-22T06:32:38;100498.91;;;26.04;65.68
75401;BME280;63974;47.538;18.972;2023-06-22T06:35:42;100503.69;;;26.22;64.92
75401;BME280;63974;47.538;18.972;2023-06-22T06:38:44;100505.28;;;26.13;66.49
75401;BME280;63974;47.538;18.972;2023-06-22T06:41:49;100493.84;;;26.18;66.03
75401;BME280;63974;47.538;18.972;2023-06-22T06:44:53;100503.94;;;26.21;65.93
75401;BME280;63974;47.538;18.972;2023-06-22T06:47:57;100509.81;;;26.33;65.10
75401;BME280;63974;47.538;18.972;2023-06-22T06:51:00;100504.50;;;26.38;65.18
75401;BME280;63974;47.538;18.972;2023-06-22T06:54:03;100500.28;;;26.62;65.38
75401;BME280;63974;47.538;18.972;2023-06-22T06:57:06;100495.22;;;26.65;64.85
75401;BME280;63974;47.538;18.972;2023-06-22T07:00:10;100496.50;;;26.83;64.39
75401;BME280;63974;47.538;18.972;2023-06-22T07:03:16;100497.78;;;27.05;63.83
75401;BME280;63974;47.538;18.972;2023-06-22T07:06:18;100488.72;;;27.11;64.14
75401;BME280;63974;47.538;18.972;2023-06-22T07:09:21;100490.81;;;27.24;62.66
75401;BME280;63974;47.538;18.972;2023-06-22T07:12:24;100476.88;;;27.42;61.48
75401;BME280;63974;47.538;18.972;2023-06-22T07:15:27;100481.06;;;27.58;61.50
75401;BME280;63974;47.538;18.972;2023-06-22T07:18:29;100479.63;;;27.81;61.62
75401;BME280;63974;47.538;18.972;2023-06-22T07:21:33;100467.84;;;27.87;61.14
75401;BME280;63974;47.538;18.972;2023-06-22T07:24:35;100461.91;;;27.94;61.29
75401;BME280;63974;47.538;18.972;2023-06-22T07:27:43;100461.47;;;28.16;59.46
75401;BME280;63974;47.538;18.972;2023-06-22T07:30:46;100466.31;;;28.14;59.79
75401;BME280;63974;47.538;18.972;2023-06-22T07:33:49;100464.34;;;28.24;60.28
75401;BME280;63974;47.538;18.972;2023-06-22T07:36:51;100476.00;;;28.38;60.25
75401;BME280;63974;47.538;18.972;2023-06-22T07:39:55;100473.00;;;28.45;61.27
75401;BME280;63974;47.538;18.972;2023-06-22T07:43:01;100470.38;;;28.40;61.64
75401;BME280;63974;47.538;18.972;2023-06-22T07:46:04;100469.56;;;28.44;61.67
75401;BME280;63974;47.538;18.972;2023-06-22T07:49:07;100473.91;;;28.35;61.68
75401;BME280;63974;47.538;18.972;2023-06-22T07:52:10;100476.00;;;28.38;61.74
75401;BME280;63974;47.538;18.972;2023-06-22T07:55:13;100468.56;;;28.64;60.99
75401;BME280;63974;47.538;18.972;2023-06-22T07:58:16;100468.50;;;28.69;59.33
75401;BME280;63974;47.538;18.972;2023-06-22T08:01:21;100472.91;;;28.83;58.68
75401;BME280;63974;47.538;18.972;2023-06-22T08:04:24;100473.66;;;28.89;58.82
75401;BME280;63974;47.538;18.972;2023-06-22T08:07:29;100466.28;;;29.04;58.27
75401;BME280;63974;47.538;18.972;2023-06-22T08:10:35;100466.63;;;28.98;57.13
75401;BME280;63974;47.538;18.972;2023-06-22T08:13:38;100474.63;;;29.21;57.69
75401;BME280;63974;47.538;18.972;2023-06-22T08:16:42;100463.88;;;29.26;57.76
75401;BME280;63974;47.538;18.972;2023-06-22T08:19:44;100461.06;;;29.36;57.61
75401;BME280;63974;47.538;18.972;2023-06-22T08:22:47;100460.81;;;29.56;57.34
75401;BME280;63974;47.538;18.972;2023-06-22T08:25:50;100459.38;;;29.82;56.54
75401;BME280;63974;47.538;18.972;2023-06-22T08:28:53;100458.41;;;29.92;57.36
75401;BME280;63974;47.538;18.972;2023-06-22T08:31:57;100467.88;;;30.03;56.41
75401;BME280;63974;47.538;18.972;2023-06-22T08:35:01;100469.28;;;30.19;55.91
75401;BME280;63974;47.538;18.972;2023-06-22T08:38:04;100464.22;;;30.17;54.98
75401;BME280;63974;47.538;18.972;2023-06-22T08:41:07;100458.13;;;29.93;56.04
75401;BME280;63974;47.538;18.972;2023-06-22T08:44:10;100463.22;;;29.76;56.80
75401;BME280;63974;47.538;18.972;2023-06-22T08:47:13;100465.16;;;30.39;55.44
75401;BME280;63974;47.538;18.972;2023-06-22T08:50:16;100454.28;;;30.49;54.72
75401;BME280;63974;47.538;18.972;2023-06-22T08:53:18;100456.69;;;30.64;54.33
75401;BME280;63974;47.538;18.972;2023-06-22T08:56:21;100464.88;;;30.73;53.49
75401;BME280;63974;47.538;18.972;2023-06-22T08:59:24;100452.25;;;31.00;53.73
75401;BME280;63974;47.538;18.972;2023-06-22T09:02:27;100449.06;;;31.12;53.93
75401;BME280;63974;47.538;18.972;2023-06-22T09:05:33;100443.22;;;31.23;53.11
75401;BME280;63974;47.538;18.972;2023-06-22T09:08:36;100444.09;;;31.32;52.42
75401;BME280;63974;47.538;18.972;2023-06-22T09:11:39;100445.88;;;31.37;51.45
75401;BME280;63974;47.538;18.972;2023-06-22T09:14:42;100447.25;;;31.48;51.75
75401;BME280;63974;47.538;18.972;2023-06-22T09:17:44;100436.66;;;31.16;52.90
75401;BME280;63974;47.538;18.972;2023-06-22T09:20:49;100437.38;;;30.94;52.65
75401;BME280;63974;47.538;18.972;2023-06-22T09:23:52;100436.34;;;31.04;52.36
75401;BME280;63974;47.538;18.972;2023-06-22T09:26:55;100424.44;;;30.96;53.09
75401;BME280;63974;47.538;18.972;2023-06-22T09:29:58;100428.53;;;31.21;52.09
75401;BME280;63974;47.538;18.972;2023-06-22T09:33:01;100428.19;;;31.36;52.49
75401;BME280;63974;47.538;18.972;2023-06-22T09:36:05;100414.63;;;31.54;50.56
75401;BME280;63974;47.538;18.972;2023-06-22T09:39:09;100424.09;;;31.87;50.38
75401;BME280;63974;47.538;18.972;2023-06-22T09:42:12;100421.38;;;32.09;50.08
75401;BME280;63974;47.538;18.972;2023-06-22T09:45:16;100427.06;;;32.08;49.46
75401;BME280;63974;47.538;18.972;2023-06-22T09:48:18;100422.81;;;32.07;48.68
75401;BME280;63974;47.538;18.972;2023-06-22T09:51:22;100413.78;;;32.33;49.56
75401;BME280;63974;47.538;18.972;2023-06-22T09:54:26;100415.31;;;32.48;48.89
75401;BME280;63974;47.538;18.972;2023-06-22T09:57:29;100413.31;;;32.31;49.64
75401;BME280;63974;47.538;18.972;2023-06-22T10:00:32;100413.00;;;32.63;47.71
75401;BME280;63974;47.538;18.972;2023-06-22T10:03:35;100411.06;;;32.25;47.48
75401;BME280;63974;47.538;18.972;2023-06-22T10:06:38;100408.38;;;32.25;48.15
75401;BME280;63974;47.538;18.972;2023-06-22T10:09:43;100407.91;;;32.62;47.21
75401;BME280;63974;47.538;18.972;2023-06-22T10:12:48;100408.41;;;32.64;46.95
75401;BME280;63974;47.538;18.972;2023-06-22T10:15:56;100407.75;;;32.58;45.86
75401;BME280;63974;47.538;18.972;2023-06-22T10:18:59;100406.97;;;32.58;45.69
75401;BME280;63974;47.538;18.972;2023-06-22T10:22:04;100408.47;;;32.72;46.17
75401;BME280;63974;47.538;18.972;2023-06-22T10:25:08;100404.16;;;33.10;45.23
75401;BME280;63974;47.538;18.972;2023-06-22T10:28:11;100403.31;;;32.93;46.34
75401;BME280;63974;47.538;18.972;2023-06-22T10:31:15;100406.97;;;32.58;47.13
75401;BME280;63974;47.538;18.972;2023-06-22T10:34:19;100403.97;;;32.98;46.08
75401;BME280;63974;47.538;18.972;2023-06-22T10:37:22;100404.03;;;32.15;47.27
75401;BME280;63974;47.538;18.972;2023-06-22T10:40:26;100409.72;;;32.36;45.70
75401;BME280;63974;47.538;18.972;2023-06-22T10:43:29;100396.28;;;32.75;46.99
75401;BME280;63974;47.538;18.972;2023-06-22T10:46:32;100394.31;;;32.97;45.32
75401;BME280;63974;47.538;18.972;2023-06-22T10:49:34;100398.88;;;32.97;45.52
75401;BME280;63974;47.538;18.972;2023-06-22T10:52:39;100393.19;;;32.98;45.61
75401;BME280;63974;47.538;18.972;2023-06-22T10:55:42;100395.31;;;33.26;44.45
75401;BME280;63974;47.538;18.972;2023-06-22T10:58:58;100395.81;;;33.54;43.29
75401;BME280;63974;47.538;18.972;2023-06-22T11:02:01;100385.97;;;33.49;44.59
75401;BME280;63974;47.538;18.972;2023-06-22T11:05:05;100374.69;;;33.13;43.32
75401;BME280;63974;47.538;18.972;2023-06-22T11:08:08;100386.28;;;33.31;43.63
75401;BME280;63974;47.538;18.972;2023-06-22T11:11:11;100391.00;;;33.17;42.35
75401;BME280;63974;47.538;18.972;2023-06-22T11:14:14;100385.22;;;32.76;44.24
75401;BME280;63974;47.538;18.972;2023-06-22T11:17:17;100388.78;;;33.10;43.95
75401;BME280;63974;47.538;18.972;2023-06-22T11:20:20;100377.44;;;33.64;42.02
75401;BME280;63974;47.538;18.972;2023-06-22T11:23:23;100382.03;;;33.89;41.01
75401;BME280;63974;47.538;18.972;2023-06-22T11:26:28;100367.13;;;34.00;40.28
75401;BME280;63974;47.538;18.972;2023-06-22T11:29:31;100377.78;;;34.34;41.17
75401;BME280;63974;47.538;18.972;2023-06-22T11:32:39;100370.06;;;34.24;41.59
75401;BME280;63974;47.538;18.972;2023-06-22T11:35:42;100373.47;;;34.50;40.88
75401;BME280;63974;47.538;18.972;2023-06-22T11:38:45;100373.31;;;34.47;38.17
75401;BME280;63974;47.538;18.972;2023-06-22T11:41:48;100366.47;;;34.03;39.66
75401;BME280;63974;47.538;18.972;2023-06-22T11:44:51;100365.03;;;33.97;38.91
75401;BME280;63974;47.538;18.972;2023-06-22T11:47:54;100366.63;;;33.98;38.59
75401;BME280;63974;47.538;18.972;2023-06-22T11:50:57;100367.25;;;34.04;38.43
75401;BME280;63974;47.538;18.972;2023-06-22T11:54:01;100356.00;;;33.93;39.43
75401;BME280;63974;47.538;18.972;2023-06-22T11:57:04;100362.19;;;34.02;39.14
75401;BME280;63974;47.538;18.972;2023-06-22T12:00:08;100362.31;;;34.23;39.62
75401;BME280;63974;47.538;18.972;2023-06-22T12:03:19;100357.72;;;34.06;39.96
75401;BME280;63974;47.538;18.972;2023-06-22T12:06:24;100354.16;;;33.60;39.74
75401;BME280;63974;47.538;18.972;2023-06-22T12:09:27;100350.25;;;34.12;38.26
75401;BME280;63974;47.538;18.972;2023-06-22T12:12:30;100351.53;;;34.06;39.33
75401;BME280;63974;47.538;18.972;2023-06-22T12:15:33;100344.34;;;34.27;38.29
75401;BME280;63974;47.538;18.972;2023-06-22T12:18:35;100338.81;;;34.61;37.78
75401;BME280;63974;47.538;18.972;2023-06-22T12:21:38;100337.22;;;34.89;37.99
75401;BME280;63974;47.538;18.972;2023-06-22T12:24:43;100342.88;;;34.75;38.15
75401;BME280;63974;47.538;18.972;2023-06-22T12:27:45;100334.03;;;34.29;40.22
75401;BME280;63974;47.538;18.972;2023-06-22T12:30:48;100329.66;;;34.53;39.34
75401;BME280;63974;47.538;18.972;2023-06-22T12:33:51;100335.75;;;33.79;39.57
75401;BME280;63974;47.538;18.972;2023-06-22T12:36:54;100337.84;;;33.48;40.16
75401;BME280;63974;47.538;18.972;2023-06-22T12:39:57;100330.69;;;33.77;39.88
75401;BME280;63974;47.538;18.972;2023-06-22T12:43:00;100331.09;;;34.05;40.06
75401;BME280;63974;47.538;18.972;2023-06-22T12:46:04;100327.53;;;34.30;40.01
75401;BME280;63974;47.538;18.972;2023-06-22T12:49:07;100318.41;;;34.51;38.68
75401;BME280;63974;47.538;18.972;2023-06-22T12:52:10;100320.03;;;34.35;39.65
75401;BME280;63974;47.538;18.972;2023-06-22T12:55:13;100317.13;;;34.49;39.51
75401;BME280;63974;47.538;18.972;2023-06-22T12:58:16;100306.72;;;34.39;39.07
75401;BME280;63974;47.538;18.972;2023-06-22T13:01:19;100306.56;;;34.73;39.13
75401;BME280;63974;47.538;18.972;2023-06-22T13:04:22;100313.88;;;34.93;38.50
75401;BME280;63974;47.538;18.972;2023-06-22T13:07:25;100305.66;;;34.89;39.31
75401;BME280;63974;47.538;18.972;2023-06-22T13:10:28;100298.44;;;35.14;38.84
75401;BME280;63974;47.538;18.972;2023-06-22T13:13:31;100297.53;;;35.30;38.07
75401;BME280;63974;47.538;18.972;2023-06-22T13:16:36;100283.22;;;35.50;37.77
75401;BME280;63974;47.538;18.972;2023-06-22T13:19:39;100284.44;;;35.73;38.58
75401;BME280;63974;47.538;18.972;2023-06-22T13:22:42;100280.00;;;36.13;36.88
75401;BME280;63974;47.538;18.972;2023-06-22T13:25:46;100278.53;;;36.39;35.95
75401;BME280;63974;47.538;18.972;2023-06-22T13:28:49;100276.88;;;36.59;34.19
75401;BME280;63974;47.538;18.972;2023-06-22T13:31:52;100281.00;;;36.68;33.85
75401;BME280;63974;47.538;18.972;2023-06-22T13:34:54;100278.28;;;37.20;33.98
75401;BME280;63974;47.538;18.972;2023-06-22T13:37:57;100274.47;;;37.48;32.87
75401;BME280;63974;47.538;18.972;2023-06-22T13:41:00;100274.53;;;37.52;33.81
75401;BME280;63974;47.538;18.972;2023-06-22T13:44:03;100273.78;;;37.67;33.65
75401;BME280;63974;47.538;18.972;2023-06-22T13:47:06;100265.63;;;37.51;33.54
75401;BME280;63974;47.538;18.972;2023-06-22T13:50:09;100256.66;;;37.08;33.16
75401;BME280;63974;47.538;18.972;2023-06-22T13:53:12;100263.03;;;37.27;33.38
75401;BME280;63974;47.538;18.972;2023-06-22T13:56:15;100257.94;;;37.53;32.74
75401;BME280;63974;47.538;18.972;2023-06-22T13:59:18;100252.63;;;37.88;31.83
75401;BME280;63974;47.538;18.972;2023-06-22T14:02:21;100253.25;;;38.12;31.81
75401;BME280;63974;47.538;18.972;2023-06-22T14:05:23;100243.66;;;38.33;31.26
75401;BME280;63974;47.538;18.972;2023-06-22T14:08:26;100235.72;;;38.25;32.12
75401;BME280;63974;47.538;18.972;2023-06-22T14:11:32;100242.56;;;38.34;31.57
75401;BME280;63974;47.538;18.972;2023-06-22T14:14:34;100238.63;;;37.70;33.38
75401;BME280;63974;47.538;18.972;2023-06-22T14:17:37;100243.44;;;38.23;30.86
75401;BME280;63974;47.538;18.972;2023-06-22T14:20:40;100243.66;;;38.33;30.26
75401;BME280;63974;47.538;18.972;2023-06-22T14:23:43;100233.56;;;38.49;30.26
75401;BME280;63974;47.538;18.972;2023-06-22T14:26:51;100230.56;;;38.70;29.31
75401;BME280;63974;47.538;18.972;2023-06-22T14:29:54;100229.47;;;38.74;30.11
75401;BME280;63974;47.538;18.972;2023-06-22T14:32:57;100238.59;;;38.82;30.81
75401;BME280;63974;47.538;18.972;2023-06-22T14:36:00;100221.66;;;38.88;29.97
75401;BME280;63974;47.538;18.972;2023-06-22T14:39:02;100225.88;;;38.86;30.15
75401;BME280;63974;47.538;18.972;2023-06-22T14:42:06;100223.66;;;38.91;29.69
75401;BME280;63974;47.538;18.972;2023-06-22T14:45:08;100226.53;;;38.64;30.30
75401;BME280;63974;47.538;18.972;2023-06-22T14:48:11;100224.25;;;39.04;30.56
75401;BME280;63974;47.538;18.972;2023-06-22T14:51:14;100214.56;;;38.84;30.04
75401;BME280;63974;47.538;18.972;2023-06-22T14:54:19;100205.13;;;38.78;30.24
75401;BME280;63974;47.538;18.972;2023-06-22T14:57:21;100201.97;;;38.57;31.13
75401;BME280;63974;47.538;18.972;2023-06-22T15:00:25;100204.47;;;39.03;30.96
75401;BME280;63974;47.538;18.972;2023-06-22T15:03:29;100206.69;;;38.79;31.49
75401;BME280;63974;47.538;18.972;2023-06-22T15:06:34;100206.94;;;38.21;31.69
75401;BME280;63974;47.538;18.972;2023-06-22T15:09:37;100199.53;;;38.52;30.85
75401;BME280;63974;47.538;18.972;2023-06-22T15:12:44;100193.41;;;38.74;31.38
75401;BME280;63974;47.538;18.972;2023-06-22T15:15:47;100202.88;;;38.30;32.13
75401;BME280;63974;47.538;18.972;2023-06-22T15:18:50;100201.81;;;38.00;32.69
75401;BME280;63974;47.538;18.972;2023-06-22T15:21:52;100195.53;;;38.30;32.67
75401;BME280;63974;47.538;18.972;2023-06-22T15:24:56;100192.31;;;38.25;32.45
75401;BME280;63974;47.538;18.972;2023-06-22T15:28:00;100195.88;;;37.95;33.37
75401;BME280;63974;47.538;18.972;2023-06-22T15:31:03;100185.88;;;38.14;33.61
75401;BME280;63974;47.538;18.972;2023-06-22T15:34:07;100191.19;;;38.26;33.33
75401;BME280;63974;47.538;18.972;2023-06-22T15:37:09;100189.13;;;38.04;33.57
75401;BME280;63974;47.538;18.972;2023-06-22T15:40:12;100176.44;;;38.08;33.23
75401;BME280;63974;47.538;18.972;2023-06-22T15:43:15;100189.81;;;37.70;33.65
75401;BME280;63974;47.538;18.972;2023-06-22T15:46:18;100183.31;;;37.28;34.50
75401;BME280;63974;47.538;18.972;2023-06-22T15:49:21;100185.13;;;37.09;34.81
75401;BME280;63974;47.538;18.972;2023-06-22T15:52:23;100183.38;;;36.89;36.49
75401;BME280;63974;47.538;18.972;2023-06-22T15:55:26;100186.28;;;36.96;36.08
75401;BME280;63974;47.538;18.972;2023-06-22T15:58:29;100184.53;;;36.36;38.12
75401;BME280;63974;47.538;18.972;2023-06-22T16:01:32;100184.88;;;36.35;37.77